Time;durP1;ratioP1;P1;durP2;ratioP2;P2;SDS_P1;SDS_P2;PMS_P1;PMS_P2;Temp;Humidity;BMP_temperature;BMP_pressure;BME280_temperature;BME280_humidity;BME280_pressure;Samples;Min_cycle;Max_cycle;Signal;HPM_P1;HPM_P2
2022/07/22 00:00:40;;;;;;;15.52;14.02;;;20.70;99.90;;;;;;2084313;28;20063;-75
2022/07/22 00:01:41;;;;;;;15.32;13.85;;;20.70;99.90;;;;;;2092988;28;20029;-74
2022/07/22 00:02:42;;;;;;;15.70;14.13;;;20.70;99.90;;;;;;2086348;28;20040;-75
2022/07/22 00:03:42;;;;;;;15.95;14.30;;;20.70;99.90;;;;;;2085336;28;20211;-74
2022/07/22 00:04:43;;;;;;;15.75;14.18;;;20.70;99.90;;;;;;2086014;28;20064;-74
2022/07/22 00:05:44;;;;;;;15.82;14.23;;;20.60;99.90;;;;;;2081493;28;20105;-74
2022/07/22 00:06:44;;;;;;;17.02;14.25;;;20.60;99.90;;;;;;2081357;28;20495;-74
2022/07/22 00:07:45;;;;;;;18.13;14.40;;;20.60;99.90;;;;;;2081229;28;20574;-74
2022/07/22 00:08:46;;;;;;;15.75;14.20;;;20.60;99.90;;;;;;2080677;28;20095;-75
2022/07/22 00:09:46;;;;;;;16.23;14.52;;;20.60;99.90;;;;;;2071572;28;20125;-74
2022/07/22 00:10:47;;;;;;;15.25;13.70;;;20.60;99.90;;;;;;2071219;28;20060;-74
2022/07/22 00:11:48;;;;;;;15.90;14.20;;;20.60;99.90;;;;;;2080048;28;21343;-74
2022/07/22 00:12:49;;;;;;;16.38;14.77;;;20.60;99.90;;;;;;2079624;28;20037;-73
2022/07/22 00:13:50;;;;;;;15.35;13.93;;;20.50;99.90;;;;;;2079832;28;20124;-74
2022/07/22 00:14:50;;;;;;;16.92;15.23;;;20.60;99.90;;;;;;2071067;28;20101;-74
2022/07/22 00:15:51;;;;;;;16.67;14.93;;;20.50;99.90;;;;;;2071388;28;20030;-74
2022/07/22 00:16:52;;;;;;;16.65;14.85;;;20.50;99.90;;;;;;2080177;28;20038;-74
2022/07/22 00:17:52;;;;;;;16.70;15.00;;;20.50;99.90;;;;;;2080046;28;20060;-74
2022/07/22 00:18:53;;;;;;;15.52;14.02;;;20.50;99.90;;;;;;2070992;28;20888;-73
2022/07/22 00:19:53;;;;;;;16.02;14.32;;;20.50;99.90;;;;;;2071291;28;20569;-75
2022/07/22 00:20:54;;;;;;;16.55;14.85;;;20.50;99.90;;;;;;2080045;28;20056;-74
2022/07/22 00:21:55;;;;;;;16.52;14.75;;;20.50;99.90;;;;;;2079877;28;20025;-74
2022/07/22 00:22:55;;;;;;;16.13;14.35;;;20.50;99.90;;;;;;2079840;28;20503;-74
2022/07/22 00:23:56;;;;;;;15.90;14.32;;;20.50;99.90;;;;;;2063139;28;20057;-74
2022/07/22 00:24:57;;;;;;;15.45;13.95;;;20.50;99.90;;;;;;2063046;28;20057;-74
2022/07/22 00:25:57;;;;;;;16.40;14.80;;;20.50;99.90;;;;;;2080016;28;20104;-74
2022/07/22 00:26:58;;;;;;;17.17;14.18;;;20.40;99.90;;;;;;2070902;28;20089;-74
2022/07/22 00:27:59;;;;;;;15.73;14.13;;;20.50;99.90;;;;;;2062918;28;20042;-74
2022/07/22 00:29:01;;;;;;;16.23;14.55;;;20.50;99.90;;;;;;2071525;28;20095;-74
2022/07/22 00:30:03;;;;;;;15.57;13.98;;;20.50;99.90;;;;;;2080075;28;20547;-74
2022/07/22 00:31:03;;;;;;;16.35;14.43;;;20.40;99.90;;;;;;2079711;28;20083;-74
2022/07/22 00:32:04;;;;;;;16.52;14.82;;;20.40;99.90;;;;;;2071208;28;20030;-74
2022/07/22 00:33:05;;;;;;;15.68;14.07;;;20.40;99.90;;;;;;2070709;28;20037;-74
2022/07/22 00:34:06;;;;;;;15.68;14.07;;;20.40;99.90;;;;;;2062962;28;20037;-75
2022/07/22 00:35:07;;;;;;;15.38;13.88;;;20.40;99.90;;;;;;2070878;28;20419;-74
2022/07/22 00:36:08;;;;;;;16.80;15.10;;;20.40;99.90;;;;;;2071179;28;20037;-74
2022/07/22 00:37:09;;;;;;;15.68;13.85;;;20.40;99.90;;;;;;2070927;28;20448;-74
2022/07/22 00:38:10;;;;;;;16.38;14.45;;;20.40;99.90;;;;;;2070986;28;20022;-74
2022/07/22 00:39:10;;;;;;;16.63;14.88;;;20.40;99.90;;;;;;2071077;28;20079;-74
2022/07/22 00:40:12;;;;;;;15.73;14.20;;;20.40;99.90;;;;;;2071108;28;20028;-73
2022/07/22 00:41:13;;;;;;;15.73;14.13;;;20.40;99.90;;;;;;2079943;28;20029;-73
2022/07/22 00:42:14;;;;;;;16.13;14.02;;;20.40;99.90;;;;;;2071096;28;20465;-73
2022/07/22 00:43:15;;;;;;;15.57;14.00;;;20.40;99.90;;;;;;2071018;28;20049;-74
2022/07/22 00:44:16;;;;;;;15.75;14.25;;;20.40;99.90;;;;;;2070865;28;20467;-74
2022/07/22 00:45:16;;;;;;;15.30;13.85;;;20.40;99.90;;;;;;2079245;28;20022;-74
2022/07/22 00:46:17;;;;;;;16.45;14.65;;;20.40;99.90;;;;;;2087362;28;20092;-74
2022/07/22 00:47:18;;;;;;;16.65;14.90;;;20.40;99.90;;;;;;2079860;28;20017;-74
2022/07/22 00:48:18;;;;;;;16.40;14.80;;;20.40;99.90;;;;;;2070850;28;20030;-74
2022/07/22 00:49:19;;;;;;;16.05;14.45;;;20.30;99.90;;;;;;2071547;28;20395;-74
2022/07/22 00:50:20;;;;;;;15.77;14.18;;;20.30;99.90;;;;;;2080321;28;20040;-74
2022/07/22 00:51:23;;;;;;;15.63;14.07;;;20.30;99.90;;;;;;2073057;28;20026;-74
2022/07/22 00:52:25;;;;;;;15.85;14.35;;;20.30;99.90;;;;;;2073411;28;20056;-74
2022/07/22 00:53:25;;;;;;;16.48;14.80;;;20.30;99.90;;;;;;2081435;28;20060;-74
2022/07/22 00:54:26;;;;;;;16.35;14.48;;;20.30;99.90;;;;;;2081242;28;20056;-74
2022/07/22 00:55:28;;;;;;;16.17;14.57;;;20.30;99.90;;;;;;2072499;28;20033;-73
2022/07/22 00:56:29;;;;;;;15.88;14.38;;;20.30;99.90;;;;;;2072459;28;20066;-74
2022/07/22 00:57:30;;;;;;;16.20;14.60;;;20.30;99.90;;;;;;2081038;28;20045;-74
2022/07/22 00:58:31;;;;;;;16.77;14.90;;;20.30;99.90;;;;;;2072237;28;20038;-74
2022/07/22 00:59:32;;;;;;;16.65;14.48;;;20.20;99.90;;;;;;2072444;28;20017;-74
2022/07/22 01:00:33;;;;;;;16.00;14.30;;;20.20;99.90;;;;;;2080429;28;20036;-73
2022/07/22 01:01:33;;;;;;;16.48;14.88;;;20.20;99.90;;;;;;2072312;28;20033;-73
2022/07/22 01:02:35;;;;;;;16.05;14.45;;;20.20;99.90;;;;;;2064196;28;20027;-73
2022/07/22 01:03:36;;;;;;;16.80;15.10;;;20.20;99.90;;;;;;2072984;28;20061;-73
2022/07/22 01:04:37;;;;;;;16.35;14.68;;;20.20;99.90;;;;;;2064557;28;20603;-74
2022/07/22 01:05:38;;;;;;;16.73;15.05;;;20.20;99.90;;;;;;2056755;28;20065;-74
2022/07/22 01:06:40;;;;;;;17.63;15.65;;;20.20;99.90;;;;;;2073063;28;20022;-74
2022/07/22 01:07:45;;;;;;;16.58;14.82;;;20.20;99.90;;;;;;2082087;28;20478;-74
2022/07/22 01:08:46;;;;;;;16.52;14.88;;;20.10;99.90;;;;;;2081667;28;20032;-73
2022/07/22 01:09:47;;;;;;;16.70;15.00;;;20.20;99.90;;;;;;2081424;28;20029;-73
2022/07/22 01:10:48;;;;;;;16.63;14.93;;;20.10;99.90;;;;;;2072275;28;20046;-73
2022/07/22 01:11:49;;;;;;;17.08;15.35;;;20.10;99.90;;;;;;2080383;28;20850;-73
2022/07/22 01:12:50;;;;;;;16.90;15.20;;;20.10;99.90;;;;;;2080188;28;20068;-74
2022/07/22 01:13:52;;;;;;;17.33;15.48;;;20.10;99.90;;;;;;2072192;28;20460;-73
2022/07/22 01:14:52;;;;;;;17.02;15.30;;;20.10;99.90;;;;;;2080996;28;20029;-74
2022/07/22 01:15:53;;;;;;;17.40;15.63;;;20.00;99.90;;;;;;2072577;28;20038;-74
2022/07/22 01:16:54;;;;;;;17.35;15.07;;;20.00;99.90;;;;;;2064238;28;20030;-73
2022/07/22 01:17:55;;;;;;;17.55;15.77;;;20.00;99.90;;;;;;2080188;28;20024;-73
2022/07/22 01:18:56;;;;;;;16.45;14.85;;;20.00;99.90;;;;;;2080274;28;20033;-74
2022/07/22 01:20:03;;;;;;;17.23;15.45;;;20.00;99.90;;;;;;2072520;28;20049;-73
2022/07/22 01:21:05;;;;;;;16.45;14.88;;;20.00;99.90;;;;;;2080982;28;20023;-73
2022/07/22 01:22:06;;;;;;;17.50;15.70;;;20.00;99.90;;;;;;2072114;28;20527;-73
2022/07/22 01:23:07;;;;;;;16.70;15.02;;;20.00;99.90;;;;;;2072023;28;20037;-74
2022/07/22 01:24:07;;;;;;;17.25;15.65;;;20.00;99.90;;;;;;2072150;28;20029;-73
2022/07/22 01:25:08;;;;;;;15.82;14.32;;;19.90;99.90;;;;;;2072013;28;20073;-74
2022/07/22 01:26:09;;;;;;;16.40;14.70;;;19.90;99.90;;;;;;2072014;28;20034;-73
2022/07/22 01:27:10;;;;;;;16.92;15.23;;;19.90;99.90;;;;;;2064302;28;20125;-73
2022/07/22 01:28:11;;;;;;;16.45;14.73;;;19.90;99.90;;;;;;2063936;28;20042;-73
2022/07/22 01:29:12;;;;;;;17.80;15.90;;;19.90;99.90;;;;;;2064094;28;20030;-74
2022/07/22 01:30:12;;;;;;;16.95;15.23;;;19.90;99.90;;;;;;2072360;28;20570;-73
2022/07/22 01:31:13;;;;;;;16.33;14.73;;;19.90;99.90;;;;;;2088397;28;20033;-73
2022/07/22 01:32:15;;;;;;;17.38;15.40;;;19.90;99.90;;;;;;2088619;28;20114;-73
2022/07/22 01:33:20;;;;;;;17.25;15.45;;;19.90;99.90;;;;;;2071922;28;20595;-74
2022/07/22 01:34:21;;;;;;;16.30;14.70;;;19.90;99.90;;;;;;2072704;28;20112;-74
2022/07/22 01:35:22;;;;;;;16.60;14.90;;;19.90;99.90;;;;;;2063883;28;20030;-74
2022/07/22 01:36:22;;;;;;;17.52;15.63;;;20.00;99.90;;;;;;2056025;28;20139;-74
2022/07/22 01:37:23;;;;;;;17.15;15.50;;;20.00;99.90;;;;;;2072208;28;20113;-74
2022/07/22 01:38:24;;;;;;;16.88;15.15;;;20.00;99.90;;;;;;2063610;28;20041;-73
2022/07/22 01:39:24;;;;;;;16.70;15.10;;;20.00;99.90;;;;;;2080533;28;20053;-74
2022/07/22 01:40:25;;;;;;;17.13;15.43;;;19.90;99.90;;;;;;2088646;28;20475;-73
2022/07/22 01:41:26;;;;;;;16.17;14.52;;;20.00;99.90;;;;;;2072081;28;20025;-73
2022/07/22 01:42:27;;;;;;;16.98;15.20;;;19.90;99.90;;;;;;2063727;28;20058;-74
2022/07/22 01:43:28;;;;;;;17.02;15.23;;;19.90;99.90;;;;;;2063896;28;20033;-73
2022/07/22 01:44:31;;;;;;;17.70;15.27;;;20.00;99.90;;;;;;2070685;28;20026;-74
2022/07/22 01:45:31;;;;;;;17.25;15.43;;;19.90;99.90;;;;;;2076119;28;20057;-74
2022/07/22 01:46:32;;;;;;;17.27;15.45;;;19.90;99.90;;;;;;2065180;28;20046;-74
2022/07/22 01:47:33;;;;;;;17.05;15.35;;;19.90;99.90;;;;;;2072986;28;20026;-74
2022/07/22 01:48:35;;;;;;;17.13;15.32;;;19.90;99.90;;;;;;2080293;28;20025;-74
2022/07/22 01:49:36;;;;;;;17.65;15.57;;;19.90;99.90;;;;;;2071962;28;20030;-73
2022/07/22 01:50:37;;;;;;;17.77;15.95;;;19.80;99.90;;;;;;2072210;28;20033;-73
2022/07/22 01:51:38;;;;;;;17.65;15.85;;;19.80;99.90;;;;;;2063990;28;20045;-73
2022/07/22 01:52:40;;;;;;;17.67;15.85;;;19.80;99.90;;;;;;2063674;28;20022;-74
2022/07/22 01:53:40;;;;;;;17.83;14.93;;;19.80;99.90;;;;;;2071933;28;20145;-73
2022/07/22 01:54:41;;;;;;;16.73;15.02;;;19.70;99.90;;;;;;2072000;28;20033;-73
2022/07/22 01:55:42;;;;;;;17.92;15.75;;;19.70;99.90;;;;;;2071756;28;20562;-74
2022/07/22 01:56:44;;;;;;;17.17;15.48;;;19.70;99.90;;;;;;2063797;28;20037;-73
2022/07/22 01:57:45;;;;;;;17.23;15.43;;;19.70;99.90;;;;;;2071822;28;20560;-73
2022/07/22 01:58:53;;;;;;;17.50;15.70;;;19.70;99.90;;;;;;2071850;28;20033;-73
2022/07/22 01:59:58;;;;;;;16.25;14.60;;;19.70;99.90;;;;;;2056475;28;20059;-73
2022/07/22 02:00:59;;;;;;;18.20;16.00;;;19.70;99.90;;;;;;2072525;28;20041;-73
2022/07/22 02:02:00;;;;;;;17.50;15.60;;;19.70;99.90;;;;;;2079903;28;20526;-73
2022/07/22 02:03:00;;;;;;;16.75;15.05;;;19.70;99.90;;;;;;2063119;28;20508;-73
2022/07/22 02:04:02;;;;;;;16.30;14.63;;;19.70;99.90;;;;;;2064119;28;20034;-74
2022/07/22 02:05:05;;;;;;;16.05;14.48;;;19.70;99.90;;;;;;2080143;28;20463;-73
2022/07/22 02:06:06;;;;;;;15.80;14.30;;;19.70;99.90;;;;;;2080069;28;20021;-74
2022/07/22 02:07:08;;;;;;;16.77;15.07;;;19.60;99.90;;;;;;2080321;28;20049;-73
2022/07/22 02:08:10;;;;;;;17.17;15.32;;;19.60;99.90;;;;;;2079869;28;20335;-73
2022/07/22 02:09:33;;;;;;;17.67;15.50;;;19.60;99.90;;;;;;2072491;28;20033;-74
2022/07/22 02:10:35;;;;;;;16.90;15.10;;;19.60;99.90;;;;;;2063815;28;20758;-73
2022/07/22 02:11:37;;;;;;;15.30;13.80;;;19.60;99.90;;;;;;2056419;28;20034;-73
2022/07/22 02:12:39;;;;;;;16.55;14.95;;;19.60;99.90;;;;;;2063538;28;20038;-73
2022/07/22 02:13:40;;;;;;;16.30;14.70;;;19.60;99.90;;;;;;2080486;28;20650;-73
2022/07/22 02:14:40;;;;;;;16.15;14.55;;;19.60;99.90;;;;;;2071913;28;20033;-73
2022/07/22 02:15:42;;;;;;;17.52;15.73;;;19.60;99.90;;;;;;2056069;28;20030;-74
2022/07/22 02:16:42;;;;;;;17.17;15.38;;;19.60;99.90;;;;;;2063986;28;20105;-74
2022/07/22 02:17:45;;;;;;;16.52;14.82;;;19.60;99.90;;;;;;2080164;28;20224;-74
2022/07/22 02:18:46;;;;;;;17.73;15.60;;;19.60;99.90;;;;;;2079759;28;20512;-74
2022/07/22 02:19:50;;;;;;;18.48;15.75;;;19.60;99.90;;;;;;2064063;28;20125;-74
2022/07/22 02:20:52;;;;;;;17.10;15.35;;;19.60;99.90;;;;;;2072534;28;20033;-73
2022/07/22 02:21:56;;;;;;;16.27;14.68;;;19.50;99.90;;;;;;2071637;28;20504;-72
2022/07/22 02:22:58;;;;;;;16.83;15.02;;;19.50;99.90;;;;;;2080221;28;20110;-73
2022/07/22 02:23:59;;;;;;;17.33;15.52;;;19.50;99.90;;;;;;2079768;28;20021;-73
2022/07/22 02:25:00;;;;;;;16.98;15.27;;;19.50;99.90;;;;;;2063406;28;20022;-72
2022/07/22 02:26:01;;;;;;;15.52;13.93;;;19.50;99.90;;;;;;2063735;28;20026;-73
2022/07/22 02:27:03;;;;;;;16.42;14.70;;;19.50;99.90;;;;;;2079810;28;20075;-73
2022/07/22 02:28:04;;;;;;;15.68;13.77;;;19.50;99.90;;;;;;2079758;28;20100;-72
2022/07/22 02:29:05;;;;;;;15.52;13.85;;;19.40;99.90;;;;;;2071802;28;20021;-72
2022/07/22 02:30:07;;;;;;;14.73;13.20;;;19.40;99.90;;;;;;2071793;28;20474;-73
2022/07/22 02:31:08;;;;;;;13.63;12.27;;;19.40;99.90;;;;;;2071640;28;20026;-73
2022/07/22 02:32:08;;;;;;;14.20;12.70;;;19.40;99.90;;;;;;2071537;28;20091;-73
2022/07/22 02:33:09;;;;;;;13.15;11.90;;;19.40;99.90;;;;;;2071230;28;20034;-72
2022/07/22 02:34:10;;;;;;;15.48;11.75;;;19.40;99.90;;;;;;2071752;28;20104;-74
2022/07/22 02:35:11;;;;;;;12.80;11.50;;;19.40;99.90;;;;;;2063406;28;20030;-74
2022/07/22 02:36:12;;;;;;;15.90;11.30;;;19.40;99.90;;;;;;2071608;28;20578;-74
2022/07/22 02:37:13;;;;;;;12.98;11.43;;;19.40;99.90;;;;;;2071536;28;20029;-74
2022/07/22 02:38:13;;;;;;;13.32;11.80;;;19.40;99.90;;;;;;2071364;28;20030;-74
2022/07/22 02:39:14;;;;;;;13.63;12.23;;;19.40;99.90;;;;;;2071334;28;20091;-75
2022/07/22 02:40:15;;;;;;;12.57;11.27;;;19.40;99.90;;;;;;2071388;28;20025;-73
2022/07/22 02:41:17;;;;;;;15.13;11.77;;;19.40;99.90;;;;;;2063380;28;20070;-74
2022/07/22 02:42:24;;;;;;;12.40;11.10;;;19.40;99.90;;;;;;2064250;28;20574;-74
2022/07/22 02:43:27;;;;;;;12.07;10.88;;;19.40;99.90;;;;;;2063221;28;20034;-74
2022/07/22 02:44:28;;;;;;;12.52;11.13;;;19.40;99.90;;;;;;2063498;28;20021;-73
2022/07/22 02:45:30;;;;;;;13.15;11.75;;;19.40;99.90;;;;;;2063444;28;20451;-74
2022/07/22 02:46:32;;;;;;;13.25;11.85;;;19.40;99.90;;;;;;2071800;28;20014;-74
2022/07/22 02:47:56;;;;;;;13.30;11.90;;;19.40;99.90;;;;;;2063418;28;20109;-74
2022/07/22 02:48:58;;;;;;;16.88;15.07;;;19.40;99.90;;;;;;2076843;28;20030;-74
2022/07/22 02:50:00;;;;;;;16.10;14.50;;;19.40;99.90;;;;;;2079470;28;20463;-73
2022/07/22 02:51:03;;;;;;;16.15;13.95;;;19.30;99.90;;;;;;2071751;28;20455;-75
2022/07/22 02:52:03;;;;;;;15.73;13.90;;;19.30;99.90;;;;;;2079857;28;20030;-74
2022/07/22 02:53:04;;;;;;;14.60;13.10;;;19.30;99.90;;;;;;2071319;28;20034;-74
2022/07/22 02:54:10;;;;;;;15.55;13.70;;;19.30;99.90;;;;;;2080436;28;20029;-73
2022/07/22 02:55:11;;;;;;;14.63;13.23;;;19.30;99.90;;;;;;2079667;28;20068;-76
2022/07/22 02:56:12;;;;;;;15.45;13.63;;;19.30;99.90;;;;;;2063319;28;20042;-74
2022/07/22 02:57:13;;;;;;;15.32;13.73;;;19.30;99.90;;;;;;2063956;28;20085;-73
2022/07/22 02:58:14;;;;;;;14.80;13.32;;;19.30;99.90;;;;;;2071547;28;20153;-74
2022/07/22 02:59:17;;;;;;;16.45;13.75;;;19.30;99.90;;;;;;2080209;28;20087;-74
2022/07/22 03:00:18;;;;;;;15.38;13.82;;;19.30;99.90;;;;;;2072111;28;20500;-74
2022/07/22 03:01:20;;;;;;;15.40;13.80;;;19.30;99.90;;;;;;2064296;28;20089;-74
2022/07/22 03:02:27;;;;;;;15.27;13.75;;;19.30;99.90;;;;;;2072250;28;20109;-73
2022/07/22 03:03:27;;;;;;;15.75;14.15;;;19.20;99.90;;;;;;2071650;28;20053;-74
2022/07/22 03:04:29;;;;;;;16.23;14.40;;;19.20;99.90;;;;;;2072222;28;20061;-74
2022/07/22 03:05:30;;;;;;;16.30;14.60;;;19.20;99.90;;;;;;2063761;28;20294;-74
2022/07/22 03:06:44;;;;;;;15.60;14.07;;;19.20;99.90;;;;;;2065669;28;20023;-74
2022/07/22 03:07:49;;;;;;;16.50;14.05;;;19.20;99.90;;;;;;2072577;28;20026;-74
2022/07/22 03:08:50;;;;;;;16.48;13.85;;;19.20;99.90;;;;;;2071446;28;20113;-75
2022/07/22 03:09:51;;;;;;;16.45;14.75;;;19.10;99.90;;;;;;2063492;28;20708;-74
2022/07/22 03:10:53;;;;;;;15.68;14.07;;;19.10;99.90;;;;;;2063439;28;20539;-75
2022/07/22 03:11:54;;;;;;;16.77;13.98;;;19.10;99.90;;;;;;2063888;28;20030;-74
2022/07/22 03:12:56;;;;;;;14.63;13.13;;;19.10;99.90;;;;;;2071749;28;20550;-73
2022/07/22 03:13:58;;;;;;;16.17;14.55;;;19.10;99.90;;;;;;2071772;28;20066;-74
2022/07/22 03:15:01;;;;;;;15.63;14.02;;;19.10;99.90;;;;;;2071310;28;20030;-73
2022/07/22 03:16:03;;;;;;;17.75;14.95;;;19.10;99.90;;;;;;2079706;28;20531;-73
2022/07/22 03:17:03;;;;;;;16.67;14.98;;;19.10;99.90;;;;;;2079453;28;20033;-73
2022/07/22 03:18:04;;;;;;;16.10;14.43;;;19.10;99.90;;;;;;2071647;28;20065;-73
2022/07/22 03:19:05;;;;;;;16.15;14.30;;;19.10;99.90;;;;;;2071494;28;20083;-73
2022/07/22 03:20:09;;;;;;;15.88;14.27;;;19.10;99.90;;;;;;2071503;28;20766;-73
2022/07/22 03:21:10;;;;;;;15.90;14.30;;;19.10;99.90;;;;;;2080340;28;20052;-73
2022/07/22 03:22:10;;;;;;;16.33;14.57;;;19.10;99.90;;;;;;2079552;28;20037;-72
2022/07/22 03:23:11;;;;;;;16.75;14.95;;;19.10;99.90;;;;;;2071064;28;20026;-74
2022/07/22 03:24:12;;;;;;;16.48;14.73;;;19.10;99.90;;;;;;2079914;28;20520;-73
2022/07/22 03:25:13;;;;;;;15.63;14.02;;;19.10;99.90;;;;;;2071504;28;20507;-73
2022/07/22 03:26:15;;;;;;;15.93;14.30;;;19.10;99.90;;;;;;2071802;28;20024;-74
2022/07/22 03:27:15;;;;;;;16.13;14.43;;;19.10;99.90;;;;;;2072097;28;20531;-74
2022/07/22 03:28:16;;;;;;;16.27;14.57;;;19.10;99.90;;;;;;2063760;28;20034;-73
2022/07/22 03:29:17;;;;;;;15.98;14.38;;;19.10;99.90;;;;;;2064333;28;20026;-74
2022/07/22 03:30:18;;;;;;;15.55;13.95;;;19.10;99.90;;;;;;2064136;28;20023;-76
2022/07/22 03:31:18;;;;;;;15.85;14.30;;;19.10;99.90;;;;;;2080919;28;20136;-74
2022/07/22 03:32:19;;;;;;;15.35;13.82;;;19.10;99.90;;;;;;2081402;28;20034;-75
2022/07/22 03:33:22;;;;;;;15.32;13.73;;;19.10;99.90;;;;;;2063997;28;20026;-74
2022/07/22 03:34:24;;;;;;;14.45;13.05;;;19.10;99.90;;;;;;2064437;28;20076;-75
2022/07/22 03:35:32;;;;;;;15.65;13.95;;;19.10;99.90;;;;;;2064833;28;20085;-74
2022/07/22 03:36:32;;;;;;;15.23;13.63;;;19.10;99.90;;;;;;2063725;28;20764;-75
2022/07/22 03:37:34;;;;;;;14.80;13.27;;;19.10;99.90;;;;;;2063597;28;20030;-75
2022/07/22 03:38:35;;;;;;;15.90;14.20;;;19.20;99.90;;;;;;2063588;28;20018;-74
2022/07/22 03:39:36;;;;;;;15.90;13.80;;;19.20;99.90;;;;;;2063763;28;20077;-74
2022/07/22 03:40:37;;;;;;;14.77;13.38;;;19.20;99.90;;;;;;2071904;28;20029;-75
2022/07/22 03:41:39;;;;;;;15.70;14.10;;;19.20;99.90;;;;;;2071241;28;20060;-75
2022/07/22 03:42:40;;;;;;;14.88;13.38;;;19.20;99.90;;;;;;2062943;28;20216;-73
2022/07/22 03:43:40;;;;;;;15.45;13.85;;;19.20;99.90;;;;;;2063301;28;20041;-73
2022/07/22 03:44:41;;;;;;;15.65;14.05;;;19.20;99.90;;;;;;2063233;28;20023;-73
2022/07/22 03:45:42;;;;;;;17.63;14.00;;;19.20;99.90;;;;;;2079533;28;20029;-74
2022/07/22 03:46:44;;;;;;;15.32;13.75;;;19.20;99.90;;;;;;2079259;28;20032;-74
2022/07/22 03:47:47;;;;;;;15.02;13.52;;;19.30;99.90;;;;;;2063415;28;20528;-74
2022/07/22 03:48:48;;;;;;;15.25;13.75;;;19.30;99.90;;;;;;2063088;28;20507;-74
2022/07/22 03:49:50;;;;;;;15.50;13.90;;;19.30;99.90;;;;;;2063319;28;20081;-75
2022/07/22 03:50:58;;;;;;;15.20;13.68;;;19.30;99.90;;;;;;2064030;28;20030;-74
2022/07/22 03:52:01;;;;;;;14.88;13.43;;;19.30;99.90;;;;;;2063298;28;20037;-75
2022/07/22 03:53:02;;;;;;;15.05;13.45;;;19.30;99.90;;;;;;2062881;28;20030;-75
2022/07/22 03:54:04;;;;;;;14.98;13.45;;;19.30;99.90;;;;;;2071259;28;20030;-74
2022/07/22 03:55:07;;;;;;;15.25;13.65;;;19.30;99.90;;;;;;2079188;28;20606;-74
2022/07/22 03:56:07;;;;;;;15.25;13.65;;;19.30;99.90;;;;;;2079010;28;20030;-73
2022/07/22 03:57:10;;;;;;;15.32;13.73;;;19.30;99.90;;;;;;2055089;28;20539;-74
2022/07/22 03:58:11;;;;;;;14.77;13.38;;;19.40;99.90;;;;;;2055421;28;20035;-74
2022/07/22 03:59:13;;;;;;;15.73;13.80;;;19.40;99.90;;;;;;2079622;28;20033;-73
2022/07/22 04:00:14;;;;;;;16.92;14.35;;;19.40;99.90;;;;;;2079709;28;20033;-74
2022/07/22 04:01:15;;;;;;;16.60;14.85;;;19.40;99.90;;;;;;2071461;28;20121;-74
2022/07/22 04:02:18;;;;;;;15.40;13.85;;;19.40;99.90;;;;;;2071541;28;20041;-73
2022/07/22 04:03:19;;;;;;;16.05;14.40;;;19.50;99.90;;;;;;2070902;28;20052;-74
2022/07/22 04:04:19;;;;;;;15.85;14.25;;;19.50;99.90;;;;;;2079956;28;20403;-76
2022/07/22 04:05:21;;;;;;;15.88;14.27;;;19.50;99.90;;;;;;2071110;28;20022;-74
2022/07/22 04:06:23;;;;;;;16.70;14.98;;;19.50;99.90;;;;;;2071057;28;20439;-73
2022/07/22 04:07:31;;;;;;;15.32;13.65;;;19.50;99.90;;;;;;2064090;28;20037;-75
2022/07/22 04:08:32;;;;;;;16.25;14.60;;;19.60;99.90;;;;;;2079111;28;20076;-73
2022/07/22 04:09:33;;;;;;;15.88;14.20;;;19.60;99.90;;;;;;2079093;28;20247;-73
2022/07/22 04:10:33;;;;;;;16.20;14.27;;;19.60;99.90;;;;;;2070921;28;20128;-76
2022/07/22 04:11:34;;;;;;;17.50;14.25;;;19.60;99.90;;;;;;2070925;28;20428;-73
2022/07/22 04:12:37;;;;;;;15.88;14.25;;;19.70;99.90;;;;;;2070861;28;20022;-74
2022/07/22 04:13:48;;;;;;;15.30;13.73;;;19.70;99.90;;;;;;2087565;28;20041;-74
2022/07/22 04:14:49;;;;;;;15.23;13.63;;;19.70;99.90;;;;;;2087472;28;20072;-73
2022/07/22 04:15:49;;;;;;;16.02;14.32;;;19.80;99.90;;;;;;2080021;28;20051;-73
2022/07/22 04:16:50;;;;;;;15.23;13.63;;;19.80;99.90;;;;;;2079885;28;20061;-76
2022/07/22 04:17:51;;;;;;;15.95;14.05;;;19.90;99.90;;;;;;2071084;28;20606;-75
2022/07/22 04:18:52;;;;;;;18.80;14.57;;;20.00;99.90;;;;;;2079224;28;20036;-72
2022/07/22 04:20:07;;;;;;;16.65;14.43;;;20.20;99.90;;;;;;2069442;28;20026;-75
2022/07/22 04:21:25;;;;;;;15.60;13.85;;;20.50;99.90;;;;;;2077366;28;20030;-73
2022/07/22 04:22:29;;;;;;;15.05;13.52;;;20.80;99.90;;;;;;2086700;28;20163;-74
2022/07/22 04:23:30;;;;;;;14.95;13.40;;;21.10;99.90;;;;;;2062892;28;20026;-75
2022/07/22 04:24:42;;;;;;;14.40;12.90;;;21.40;99.90;;;;;;2057801;28;20030;-74
2022/07/22 04:25:44;;;;;;;14.98;12.82;;;21.60;99.90;;;;;;2063481;28;20065;-74
2022/07/22 04:26:44;;;;;;;13.88;12.48;;;21.80;99.90;;;;;;2072352;28;20080;-73
2022/07/22 04:27:48;;;;;;;15.80;12.82;;;22.10;99.90;;;;;;2064650;28;20054;-75
2022/07/22 04:28:49;;;;;;;13.80;12.30;;;22.20;99.90;;;;;;2072431;28;20373;-74
2022/07/22 04:29:50;;;;;;;13.98;12.30;;;22.40;99.90;;;;;;2072722;28;20030;-73
2022/07/22 04:30:51;;;;;;;14.02;12.00;;;22.50;99.90;;;;;;2064560;28;20101;-74
2022/07/22 04:31:51;;;;;;;12.95;11.52;;;22.70;99.90;;;;;;2056910;28;20039;-73
2022/07/22 04:32:53;;;;;;;13.70;11.32;;;22.80;99.90;;;;;;2064652;28;20782;-74
2022/07/22 04:33:55;;;;;;;12.73;11.00;;;22.90;99.90;;;;;;2064850;28;20034;-73
2022/07/22 04:34:55;;;;;;;12.48;10.23;;;23.10;99.90;;;;;;2072689;28;20049;-73
2022/07/22 04:35:57;;;;;;;11.45;10.25;;;23.20;99.90;;;;;;2072755;28;20070;-73
2022/07/22 04:36:58;;;;;;;11.52;10.32;;;23.30;99.90;;;;;;2072893;28;20079;-73
2022/07/22 04:38:01;;;;;;;11.27;10.10;;;23.40;99.90;;;;;;2088945;28;20143;-73
2022/07/22 04:39:02;;;;;;;10.50;9.40;;;23.50;99.90;;;;;;2081025;28;20034;-73
2022/07/22 04:40:04;;;;;;;9.73;8.73;;;23.60;99.90;;;;;;2072909;28;20116;-72
2022/07/22 04:41:05;;;;;;;12.90;9.75;;;23.70;99.90;;;;;;2072972;28;20026;-74
2022/07/22 04:42:06;;;;;;;11.00;9.85;;;23.90;99.90;;;;;;2073161;28;20033;-74
2022/07/22 04:43:07;;;;;;;10.57;9.48;;;24.00;99.90;;;;;;2072849;28;20113;-75
2022/07/22 04:44:09;;;;;;;10.10;9.07;;;24.20;99.90;;;;;;2073260;28;20068;-74
2022/07/22 04:45:11;;;;;;;10.45;9.43;;;24.30;99.90;;;;;;2074062;28;20032;-74
2022/07/22 04:46:12;;;;;;;10.35;9.35;;;24.40;99.90;;;;;;2074589;28;20041;-73
2022/07/22 04:47:16;;;;;;;11.13;9.10;;;24.60;99.90;;;;;;2073727;28;20030;-74
2022/07/22 04:48:18;;;;;;;10.52;9.43;;;24.70;99.90;;;;;;2080909;28;20041;-74
2022/07/22 04:49:22;;;;;;;10.55;9.30;;;24.80;99.90;;;;;;2080238;28;20036;-74
2022/07/22 04:50:23;;;;;;;10.93;9.88;;;24.90;99.90;;;;;;2072623;28;20374;-74
2022/07/22 04:51:30;;;;;;;12.25;9.80;;;25.00;99.90;;;;;;2081215;28;20025;-75
2022/07/22 04:52:37;;;;;;;11.85;10.10;;;25.10;99.90;;;;;;2072526;28;20121;-72
2022/07/22 04:53:37;;;;;;;11.93;10.40;;;25.20;99.90;;;;;;2064449;28;20093;-74
2022/07/22 04:54:38;;;;;;;11.70;9.95;;;25.10;99.90;;;;;;2064666;28;20029;-74
2022/07/22 04:55:39;;;;;;;11.48;9.90;;;25.00;99.90;;;;;;2080777;28;20722;-74
2022/07/22 04:56:40;;;;;;;10.15;9.15;;;25.00;99.90;;;;;;2080985;28;20025;-73
2022/07/22 04:57:40;;;;;;;10.88;9.73;;;25.10;99.90;;;;;;2064507;28;20045;-72
2022/07/22 04:58:41;;;;;;;10.13;9.10;;;25.10;99.90;;;;;;2073593;28;20022;-73
2022/07/22 04:59:42;;;;;;;10.73;9.65;;;25.20;99.90;;;;;;2076437;28;20060;-73
2022/07/22 05:00:46;;;;;;;11.18;9.52;;;25.30;99.90;;;;;;2079263;28;20033;-73
2022/07/22 05:01:47;;;;;;;11.45;9.73;;;25.40;99.90;;;;;;2079265;28;20034;-73
2022/07/22 05:02:47;;;;;;;11.35;10.18;;;25.50;99.90;;;;;;2086041;28;20044;-74
2022/07/22 05:03:48;;;;;;;10.80;9.68;;;25.50;99.90;;;;;;2077430;28;20033;-73
2022/07/22 05:04:49;;;;;;;11.02;9.88;;;25.60;99.90;;;;;;2075707;28;20053;-75
2022/07/22 05:05:50;;;;;;;13.45;10.50;;;25.60;99.70;;;;;;2084793;28;20040;-73
2022/07/22 05:06:59;;;;;;;13.20;10.15;;;25.50;99.40;;;;;;2091491;28;20027;-75
2022/07/22 05:07:59;;;;;;;11.57;9.65;;;25.40;99.60;;;;;;2073669;28;20029;-74
2022/07/22 05:09:02;;;;;;;10.40;9.30;;;25.60;99.50;;;;;;2064686;28;20050;-74
2022/07/22 05:10:06;;;;;;;10.88;9.60;;;25.70;99.30;;;;;;2081076;28;20021;-72
2022/07/22 05:11:07;;;;;;;11.95;10.65;;;25.80;99.00;;;;;;2080673;28;20025;-72
2022/07/22 05:12:09;;;;;;;12.30;9.80;;;25.70;98.60;;;;;;2064781;28;20030;-72
2022/07/22 05:13:13;;;;;;;12.30;9.82;;;25.70;98.50;;;;;;2063949;28;20037;-75
2022/07/22 05:14:13;;;;;;;13.02;9.90;;;25.90;98.50;;;;;;2080779;28;20036;-75